Tiempo atmosférico en la estación meteorológica de Cádiz, Cadiz (1 m.)



Fecha
DESCASC
Temp. máxima en grados centígrados (hora)
DESCASC
Temp. mínima en grados centígrados (hora)
DESCASC
Temp. media en grados centígrados
DESCASC
Racha de viento máxima en m/sg (hora)
DESCASC
Velocidad máxima media en intervalos de 10 minutos(hora)
DESCASC
Precipitaciones diarias en mm
DESCASC
Precipitaciones de 00:00 a 06:00 en mm
DESCASC
Precipitaciones de 06:00 a 12:00 en mm
DESCASC
Precipitaciones de 12:00 a 18:00 en mm
DESCASC
Precipitaciones de 18:00 a 24:00 en mm
DESCASC
16-01-2020 18.1 (14:20) 10.2 (06:10) 14.2 6.39 (16:10) 3.61 (15:20) 0 0 0 0 0
15-01-2020 17.6 (16:20) 11.1 (08:30) 14.4 8.61 (12:00) 6.11 (12:00) 0 0 0 0 0
14-01-2020 16.7 (14:40) 8.9 (08:40) 12.8 3.89 (03:40) 2.78 (04:50) 0 0 0 0 0
13-01-2020 17.5 (16:20) 8.4 (09:20) 12.9 4.17 (13:50) 3.89 (13:50) 0 0 0 0 0
12-01-2020 16.7 (16:50) 9.7 (00:00) 13.2 6.67 (00:10) 5.28 (00:10) 0 0 0 0 0
11-01-2020 18 (16:50) 8.2 (00:00) 13.1 7.22 (01:30) 5.56 (01:30) 0 0 0 0 0
10-01-2020 14.6 (17:10) 10.5 (00:00) 12.6 9.17 (22:40) 7.78 (22:40) 0 0 0 0 0
09-01-2020 17.3 (14:10) 11.2 (00:00) 14.2 6.94 (16:10) 5 (16:20) 0 0 0 0 0
08-01-2020 17.8 (16:40) 8.3 (00:00) 13 4.72 (23:00) 3.61 (23:00) 0 0 0 0 0
07-01-2020 18.1 (14:50) 8.3 (00:00) 13.2 7.22 (12:50) 4.72 (13:00) 0 0 0 0 0
06-01-2020 17.4 (16:30) 8.4 (00:00) 12.9 4.72 (12:00) 3.89 (12:00) 0 0 0 0 0
05-01-2020 17.4 (14:20) 10 (00:00) 13.7 10 (18:00) 7.78 (17:50) 0 0 0 0 0
04-01-2020 14.7 (16:40) 8.3 (00:00) 11.5 8.33 (20:30) 3.61 (13:20) 0 0 0 0 0
03-01-2020 15.7 (15:00) 10.4 (00:00) 13 7.78 (15:10) 5.83 (17:30) 0 0 0 0 0
02-01-2020 17.9 (16:30) 10.4 (00:00) 14.1 5 (23:10) 3.61 (23:30) 0 0 0 0 0
01-01-2020 18.7 (14:30) 10.5 (00:00) 14.6 6.11 (00:20) 4.17 (00:20) 0 0 0 0 0
31-12-2019 17.3 (15:00) 10.5 (00:00) 13.9 13.89 (18:20) 9.72 (18:20) 0 0 0 0 0
30-12-2019 17.4 (15:10) 11 (00:00) 14.2 14.44 (13:10) 10.56 (11:00) 0 0 0 0 0
29-12-2019 17.5 (15:00) 13.5 (00:00) 15.5 18.06 (12:40) 12.5 (12:40) 0 0 0 0 0
28-12-2019 18.6 (15:40) 14 (00:00) 16.3 14.72 (03:50) 10.28 (03:20) 0 0 0 0 0
27-12-2019 19.5 (14:20) 14.4 (00:00) 16.9 16.94 (11:10) 11.67 (11:50) 0 0 0 0 0
26-12-2019 20.2 (16:20) 12.3 (00:00) 16.3 6.67 (16:10) 4.72 (06:50) 0 0 0 0 0
25-12-2019 19.6 (15:50) 12.1 (00:00) 15.9 5 (04:20) 3.61 (16:40) 0 0 0 0 0
24-12-2019 22 (15:20) 11.2 (00:00) 16.6 10 (20:50) 6.67 (16:40) 0 0 0 0 0
23-12-2019 -- (--) -- (--) -- -- (--) -- (--) -- 0.1 0.1 0 --
22-12-2019 18.9 (15:10) 15.1 (00:00) 17 7.22 (01:10) 4.44 (02:10) 0.1 0.1 0 0 0
21-12-2019 18.5 (11:20) 16.9 (00:00) 17.7 12.22 (12:50) 7.22 (06:40) 0.8 0 0 0.8 0
20-12-2019 18.3 (06:20) 17 (00:00) 17.6 17.22 (03:50) 9.72 (04:50) 18.3 1.4 4.4 12 0.5

Gráficas

Temp. máximas Temp. mínimas Temp. medias Precipitaciones Rachas de viento máximas Velocidades máximas media en intervalos de 10 minutos

Datos horarios

Fecha y hora oficial Temperatura (ºC) Velocidad del viento (km/h) Dirección del viento Racha (km/h) Dirección de racha Precipitación (mm) Presión (hPa) Tendencia (hPa) Humedad (%)
2020-01-18 23:00:00 16.5 17 Oeste 32 Oeste 0 1026 -1.5 95
2020-01-18 22:00:00 16.4 18 Oeste 34 Sudoeste 0.1 1026.6 -1.1 96
2020-01-18 21:00:00 16.5 16 Oeste 29 Oeste 0 1027.1 -1 97
2020-01-18 20:00:00 16.4 12 Sudoeste 26 Sudoeste 0 1027.5 -0.8 98
2020-01-18 19:00:00 16.1 13 Sudoeste 28 Sudoeste 0.8 1027.7 -1 97
2020-01-18 18:00:00 16.2 14 Sudoeste 30 Sudoeste 0.5 1028.1 -1 96
2020-01-18 17:00:00 16.5 14 Sudoeste 25 Sur 0 1028.3 -1.7 93
2020-01-18 16:00:00 16.5 14 Sudoeste 24 Sudoeste 0.1 1028.7 -2.5 92
2020-01-18 15:00:00 16.5 9 Sur 22 Sur 0 1029.1 -3 92
2020-01-18 14:00:00 16.4 12 Sur 22 Sur 0 1030 -2.1 93
2020-01-18 13:00:00 16.2 13 Sur 19 Sur 0 1031.2 -0.6 94
2020-01-18 12:00:00 14.7 11 Sudeste 13 Sudeste 0.1 1032.1 0.6 96
2020-01-18 11:00:00 14.1 3 Sudeste 6 Este 0 1032.1 0.9 98
2020-01-18 10:00:00 13 5 Sudeste 8 Este 0 1031.8 1.3 98
2020-01-18 09:00:00 12.6 4 Este 7 Este 0 1031.5 1.1 98
2020-01-18 08:00:00 12.6 3 Sudeste 5 Sudeste 0 1031.2 0.6 99
2020-01-18 07:00:00 12.5 3 Sudeste 9 Sudeste 0 1030.5 -0.5 99
2020-01-18 06:00:00 12.2 6 Sudeste 9 Sur 0 1030.4 -1 98
2020-01-18 05:00:00 12 3 Sudeste 7 Este 0.1 1030.6 -1 98
2020-01-18 04:00:00 12.3 3 Este 7 Este 0 1031 -1.1 98
2020-01-18 03:00:00 12.9 2 Este 4 Este 0.1 1031.4 -1.1 98
2020-01-18 02:00:00 12.7 0 Calma 10 Este 0 1031.6 -0.7 97
2020-01-18 01:00:00 12.6 5 Nordeste 8 Nordeste 0 1032.1 -0.2 96
2020-01-18 00:00:00 12.9 0 Calma 5 Este 0 1032.5 0.3 95
2020-01-17 23:00:00 13.4 0 Calma 4 Sur 0 1032.3 0.4 94
2020-01-17 22:00:00 14.1 3 Sur 5 Sur 0 1032.3 0.9 95
2020-01-17 21:00:00 14.3 3 Sudeste 6 Sur 0 1032.2 1 94
2020-01-17 20:00:00 14.6 2 Sudeste 5 Sudeste 0 1031.9 0.8 93
2020-01-17 19:00:00 15.4 3 Sur 9 Sur 0 1031.4 0.6 92
2020-01-17 18:00:00 16.4 5 Sur 11 Sur 0 1031.2 0 89
2020-01-17 17:00:00 17.6 5 Sur 13 Sur 0 1031.1 -0.8 85
2020-01-17 16:00:00 17.1 5 Sur 16 Sur 0 1030.8 -1.9 87
2020-01-17 15:00:00 17 8 Sur 17 Sur 0 1031.2 -1.9 88
2020-01-17 14:00:00 17.3 6 Sur 14 Sur 0 1031.9 -1.1 87
2020-01-17 13:00:00 17.7 8 Sur 17 Sur 0 1032.7 0.3 86
2020-01-17 12:00:00 16.1 8 Sur 13 Sur 0 1033.1 1.3 93
2020-01-17 11:00:00 14.6 7 Este 10 Este 0 1033 1.7 92
2020-01-17 10:00:00 14.6 5 Este 10 Sudeste 0 1032.4 1.5 92
2020-01-17 09:00:00 13.6 6 Sudeste 15 Sudeste 0 1031.8 1.5 94
2020-01-17 08:00:00 13.2 7 Sur 17 Sudeste 0 1031.3 1.2 93
2020-01-17 07:00:00 13.1 10 Sudeste 17 Sudeste 0 1030.9 0.6 93
2020-01-17 06:00:00 12.7 8 Sur 16 Sudeste 0 1030.3 -0.2 94
2020-01-17 05:00:00 12.4 11 Sudeste 15 Sudeste 0 1030.1 0 94
2020-01-17 04:00:00 12.5 12 Sudeste 18 Sudeste 0 1030.3 0 92
2020-01-17 03:00:00 12.6 13 Sudeste 17 Sudeste 0 1030.5 0.1 91
2020-01-17 02:00:00 12.7 11 Sudeste 17 Sudeste 0 1030.1 0.1 91
2020-01-17 01:00:00 12.7 12 Sudeste 16 Sudeste 0 1030.3 0.5 90
2020-01-17 00:00:00 12.9 6 Sudeste 11 Sudeste 0 1030.4 1.1 91
2020-01-16 23:00:00 13.3 5 Sudeste 10 Sudeste 0 1030 1 92
2020-01-16 22:00:00 13.9 4 Sudeste 7 Sur 0 1029.8 1.5 91
2020-01-16 21:00:00 14.2 4 Sur 6 Sur 0 1029.3 1.3 92
2020-01-16 20:00:00 14.5 4 Sur 9 Sur 0 1029 1.2 89
2020-01-16 19:00:00 14.9 5 Sur 12 Sur 0 1028.3 0.7 86
2020-01-16 18:00:00 16.2 6 Sur 18 Sur 0 1028 0.3 75
2020-01-16 17:00:00 17.2 8 Sur 23 Sur 0 1027.8 -0.2 73
2020-01-16 16:00:00 17 11 Sur 22 Sur 0 1027.6 -1.1 77
2020-01-16 15:00:00 17.4 12 Sur 21 Sur 0 1027.7 -1.1 73
2020-01-16 14:00:00 17.6 6 Sur 13 Sur 0 1028 -0.8 68
2020-01-16 13:00:00 17.1 6 Sudoeste 12 Sudoeste 0 1028.7 0.3 59
2020-01-16 12:00:00 15 3 Este 8 Este 0 1028.8 1 68
2020-01-16 11:00:00 12.4 3 Nordeste 7 Nordeste 0 1028.8 1.3 82
2020-01-16 10:00:00 10.7 4 Norte 6 Norte 0 1028.4 1.4 86
2020-01-16 09:00:00 10.3 3 Nordeste 5 Nordeste 0 1027.8 1 83
2020-01-16 08:00:00 10.5 4 Norte 7 Nordeste 0 1027.5 0.5 77
2020-01-16 07:00:00 10.5 4 Norte 8 Norte 0 1027 0 77
2020-01-16 06:00:00 10.3 6 Norte 9 Norte 0 1026.8 -0.4 79
2020-01-16 05:00:00 10.5 2 Nordeste 6 Norte 0 1027 -0.4 81
2020-01-16 04:00:00 10.5 4 Nordeste 7 Nordeste 0 1027 -0.6 82
2020-01-16 03:00:00 10.6 3 Norte 7 Este 0 1027.2 -0.6 84
2020-01-16 02:00:00 10.9 4 Nordeste 5 Nordeste 0 1027.4 -0.1 82
2020-01-16 01:00:00 11.3 3 Nordeste 8 Este 0 1027.6 0.1 83
2020-01-16 00:00:00 11.5 2 Este 10 Este 0 1027.8 0.3 83
2020-01-15 23:00:00 12.7 3 Este 8 Sudeste 0 1027.5 0.4 84
2020-01-15 22:00:00 13 5 Sudeste 9 Sudeste 0 1027.5 0.4 84
2020-01-15 21:00:00 13.6 7 Este 13 Este 0 1027.5 0.7 84
2020-01-15 20:00:00 14.3 7 Sudeste 10 Sudeste 0 1027.1 0.6 87
2020-01-15 19:00:00 14.8 6 Sudeste 15 Sur 0 1027.1 0.9 84
2020-01-15 18:00:00 16.3 10 Sur 17 Sur 0 1026.8 0.7 76
2020-01-15 17:00:00 17.1 8 Sur 23 Sur 0 1026.5 0.1 71
2020-01-15 16:00:00 17.2 12 Sur 22 Sur 0 1026.2 -0.4 72
2020-01-15 15:00:00 17.2 13 Sur 24 Sur 0 1026.1 -0.9 72
2020-01-15 14:00:00 16.9 14 Sur 26 Sur 0 1026.4 -0.3 73
2020-01-15 13:00:00 17.1 15 Sur 30 Sur 0 1026.6 0.6 71
2020-01-15 12:00:00 16.7 22 Sur 31 Sur 0 1027 1.7 74
2020-01-15 11:00:00 16.1 18 Sur 27 Sur 0 1026.7 1.7 77
2020-01-15 10:00:00 13.2 11 Sudeste 19 Sudeste 0 1026 1.7 88
2020-01-15 09:00:00 11.6 14 Sudeste 18 Sudeste 0 1025.3 1.3 92
2020-01-15 08:00:00 11.3 13 Sudeste 17 Sudeste 0 1025 0.9 92
2020-01-15 07:00:00 11.4 12 Sudeste 19 Sudeste 0 1024.3 0 91
2020-01-15 06:00:00 12.1 16 Sudeste 19 Sudeste 0 1024 -0.3 91
2020-01-15 05:00:00 11.6 14 Sudeste 19 Sudeste 0 1024.1 -0.1 89
2020-01-15 04:00:00 11.8 16 Sudeste 19 Sudeste 0 1024.3 -0.6 89
2020-01-15 03:00:00 11.9 13 Sudeste 20 Sudeste 0 1024.3 -0.7 87
2020-01-15 02:00:00 12.1 16 Sudeste 20 Sudeste 0 1024.2 -0.6 85
2020-01-15 01:00:00 11.8 6 Sudeste 10 Este 0 1024.9 0.3 85
2020-01-15 00:00:00 11.8 4 Nordeste 8 Este 0 1025 0.5 84
2020-01-14 23:00:00 12.1 5 Este 10 Este 0 1024.8 0.2 82
2020-01-14 22:00:00 12.9 3 Nordeste 8 Sudeste 0 1024.6 0.4 83
2020-01-14 21:00:00 13.2 4 Sur 10 Sudeste 0 1024.5 0.2 82
2020-01-14 20:00:00 13.7 6 Sur 9 Sudeste 0 1024.6 0.6 80
2020-01-14 19:00:00 14.6 5 Sur 10 Sur 0 1024.2 0.6 69
2020-01-14 18:00:00 15.5 4 Sudoeste 10 Sudoeste 0 1024.3 0.6 57
2020-01-14 17:00:00 16.6 3 Sur 10 Sur 0 1024 -0.3 64
2020-01-14 16:00:00 16.2 3 Sudeste 8 Sur 0 1023.6 -1.7 65
2020-01-14 15:00:00 16.4 5 Sur 11 Sur 0 1023.7 -2.3 66
2020-01-14 14:00:00 15.6 4 Sur 7 Este 0 1024.3 -1.7 69
2020-01-14 13:00:00 14.4 4 Sudeste 6 Sudeste 0 1025.3 0.4 75
2020-01-14 12:00:00 12.1 5 Norte 7 Norte 0 1026 1.6 82
2020-01-14 11:00:00 11.3 5 Norte 8 Norte 0 1026 1.8 84
2020-01-14 10:00:00 10.5 3 Este 8 Este 0 1024.9 1 85
2020-01-14 09:00:00 9 3 Este 9 Este 0 1024.4 1 89
2020-01-14 08:00:00 10 5 Nordeste 7 Nordeste 0 1024.2 0.4 86
2020-01-14 07:00:00 10 3 Nordeste 8 Nordeste 0 1023.9 -0.1 85
2020-01-14 06:00:00 10.5 6 Nordeste 9 Nordeste 0 1023.4 -0.7 83
2020-01-14 05:00:00 10.5 7 Nordeste 13 Nordeste 0 1023.8 -0.5 86
2020-01-14 04:00:00 10.5 7 Norte 14 Norte 0 1024 -0.9 90
2020-01-14 03:00:00 10.9 5 Norte 7 Norte 0 1024.1 -1 87
2020-01-14 02:00:00 10.8 3 Nordeste 5 Nordeste 0 1024.3 -0.9 86
2020-01-14 01:00:00 11.7 3 Norte 7 Norte 0 1024.9 -0.4 84
2020-01-14 00:00:00 11.6 4 Nordeste 7 Nordeste 0 1025.1 -0.4 83
2020-01-13 23:00:00 11.9 4 Este 9 Nordeste 0 1025.2 -0.3 85
2020-01-13 22:00:00 12.3 7 Nordeste 10 Nordeste 0 1025.3 -0.1 82
2020-01-13 21:00:00 13.4 0 Calma 9 Nordeste 0 1025.5 0.2 77
2020-01-13 20:00:00 14 2 Sudoeste 9 Sudoeste 0 1025.5 0.4 78
2020-01-13 19:00:00 14.3 5 Sudoeste 10 Oeste 0 1025.4 0.1 76
2020-01-13 18:00:00 15.2 7 Sudoeste 11 Sudoeste 0 1025.3 -0.2 69
2020-01-13 17:00:00 17 5 Sudoeste 10 Sudoeste 0 1025.1 -1.4 60
2020-01-13 16:00:00 17.1 4 Sur 9 Sudoeste 0 1025.3 -2.2 61
2020-01-13 15:00:00 15.2 6 Noroeste 15 Norte 0 1025.5 -2.4 70
2020-01-13 14:00:00 14.2 13 Norte 15 Norte 0 1026.5 -1.4 73
2020-01-13 13:00:00 13.3 12 Norte 14 Norte 0 1027.5 0.4 76
2020-01-13 12:00:00 12.1 8 Norte 13 Norte 0 1027.9 0.8 80
2020-01-13 11:00:00 10.5 9 Norte 11 Norte 0 1027.9 1.3 84
2020-01-13 10:00:00 8.8 8 Norte 12 Norte 0 1027.1 0.7 86
2020-01-13 09:00:00 8.7 7 Norte 9 Norte 0 1027.1 0.5 87
2020-01-13 08:00:00 9 7 Norte 11 Norte 0 1026.6 -0.6 92
2020-01-13 07:00:00 10.4 4 Nordeste 13 Este 0 1026.4 -1.1 89
2020-01-13 06:00:00 9.9 4 Este 8 Nordeste 0 1026.6 -0.9 92
2020-01-13 05:00:00 9.4 4 Norte 10 Norte 0 1027.2 -0.9 90
2020-01-13 04:00:00 10.1 8 Norte 10 Norte 0 1027.5 -1.4 86
2020-01-13 03:00:00 10.4 7 Norte 9 Norte 0 1027.5 -1.8 88
2020-01-13 02:00:00 10.7 3 Nordeste 8 Norte 0 1028.1 -1.3 84
2020-01-13 01:00:00 10.8 7 Norte 9 Norte 0 1028.9 -0.3 77
2020-01-13 00:00:00 11.3 4 Norte 8 Noroeste 0 1029.3 0.5 75
2020-01-12 23:00:00 11.8 4 Norte 8 Nordeste 0 1029.4 0.4 66
2020-01-12 22:00:00 12 2 Norte 14 Este 0 1029.2 0.8 71
2020-01-12 21:00:00 13 8 Nordeste 17 Norte 0 1028.8 0.5 68
2020-01-12 20:00:00 14.2 12 Norte 18 Norte 0 1029 0.9 67
2020-01-12 19:00:00 15 10 Norte 15 Norte 0 1028.4 0 67
2020-01-12 18:00:00 15.7 11 Norte 16 Norte 0 1028.3 -0.6 56
2020-01-12 17:00:00 16.6 8 Nordeste 17 Norte 0 1028.1 -1.7 55
2020-01-12 16:00:00 15.6 13 Norte 17 Norte 0 1028.4 -2.5 58
2020-01-12 15:00:00 15.4 12 Norte 16 Norte 0 1028.9 -2.7 57
2020-01-12 14:00:00 14.8 13 Norte 17 Norte 0 1029.8 -1.9 61
2020-01-12 13:00:00 14.2 11 Norte 14 Norte 0 1030.9 -0.2 66
2020-01-12 12:00:00 12.2 9 Norte 13 Norte 0 1031.6 0.8 76
2020-01-12 11:00:00 10.6 7 Norte 14 Nordeste 0 1031.7 1.2 77
2020-01-12 10:00:00 10.3 10 Nordeste 17 Nordeste 0 1031.1 0.7 78
2020-01-12 09:00:00 10.2 8 Nordeste 13 Nordeste 0 1030.8 0.8 79
2020-01-12 08:00:00 10.4 8 Nordeste 16 Nordeste 0 1030.5 0.3 82
2020-01-12 07:00:00 10.5 11 Nordeste 17 Nordeste 0 1030.4 -0.1 80
2020-01-12 06:00:00 10.4 14 Nordeste 18 Nordeste 0 1030 -0.5 82
2020-01-12 05:00:00 10.5 10 Nordeste 14 Nordeste 0 1030.2 -0.2 84
2020-01-12 04:00:00 10.6 8 Nordeste 16 Este 0 1030.5 -0.1 85
2020-01-12 03:00:00 12.2 11 Sudeste 16 Este 0 1030.5 0 80
2020-01-12 02:00:00 11.7 4 Nordeste 22 Este 0 1030.4 -0.2 81
2020-01-12 01:00:00 12.2 15 Este 24 Este 0 1030.6 0.1 79
2020-01-12 00:00:00 12.4 17 Este 23 Este 0 1030.5 0.3 79
2020-01-11 23:00:00 11.9 6 Este 11 Este 0 1030.6 0.5 79
2020-01-11 22:00:00 12.3 4 Este 12 Este 0 1030.5 1.1 74
2020-01-11 21:00:00 13.1 11 Este 15 Este 0 1030.2 1.6 73
2020-01-11 20:00:00 13.8 5 Este 17 Este 0 1030.1 1.8 67
2020-01-11 19:00:00 15.1 13 Este 19 Este 0 1029.4 1.3 64
2020-01-11 18:00:00 16.8 6 Nordeste 10 Nordeste 0 1028.6 0.3 57
2020-01-11 17:00:00 17.7 6 Nordeste 18 Sudeste 0 1028.3 -0.6 54
2020-01-11 16:00:00 17.6 12 Este 18 Este 0 1028.1 -1.7 57
2020-01-11 15:00:00 15.9 7 Noroeste 12 Norte 0 1028.3 -1.8 69
2020-01-11 14:00:00 15 7 Noroeste 12 Norte 0 1028.9 -1.1 70
2020-01-11 13:00:00 12.9 9 Norte 12 Norte 0 1029.8 0.6 69
2020-01-11 12:00:00 12 9 Nordeste 15 Nordeste 0 1030.1 1.5 66
2020-01-11 11:00:00 10.6 11 Nordeste 14 Nordeste 0 1030 2.1 66
2020-01-11 10:00:00 8.7 11 Norte 15 Nordeste 0 1029.2 1.7 71
2020-01-11 09:00:00 8.2 12 Norte 17 Norte 0 1028.6 1.3 74
2020-01-11 08:00:00 8.5 12 Norte 16 Norte 0 1027.9 0.7 71
2020-01-11 07:00:00 8.7 6 Nordeste 12 Norte 0 1027.5 0 72
2020-01-11 06:00:00 9 7 Norte 17 Norte 0 1027.3 -0.2 73
2020-01-11 05:00:00 10.5 12 Norte 17 Norte 0 1027.2 0.2 68
2020-01-11 04:00:00 10.4 11 Norte 19 Norte 0 1027.5 0.4 71
2020-01-11 03:00:00 10.5 13 Nordeste 23 Norte 0 1027.5 0.2 71
2020-01-11 02:00:00 11.4 17 Norte 26 Norte 0 1027 -0.2 66
2020-01-11 01:00:00 12.1 18 Norte 25 Norte 0 1027.1 -0.2 66
2020-01-11 00:00:00 12.5 19 Norte 31 Norte 0 1027.3 0.2 70
2020-01-10 23:00:00 13 20 Norte 33 Norte 0 1027.2 0.5 72
2020-01-10 22:00:00 13.1 15 Norte 19 Norte 0 1027.3 1.3 77
2020-01-10 21:00:00 13.3 14 Norte 17 Norte 0 1027.1 1.5 75
2020-01-10 20:00:00 13.6 14 Norte 20 Noroeste 0 1026.7 0.9 74
2020-01-10 19:00:00 14.1 15 Norte 19 Noroeste 0 1026 0.7 67
2020-01-10 18:00:00 14.4 13 Norte 19 Norte 0 1025.6 0 72
2020-01-10 17:00:00 14.5 15 Noroeste 22 Noroeste 0 1025.8 -0.6 70
2020-01-10 16:00:00 13.9 11 Norte 20 Noroeste 0 1025.3 -1.7 75
2020-01-10 15:00:00 13.4 17 Noroeste 22 Noroeste 0 1025.6 -2.5 71
2020-01-10 14:00:00 12.9 8 Norte 13 Noroeste 0 1026.4 -1.7 75
2020-01-10 13:00:00 12.4 6 Norte 14 Norte 0 1027 -0.4 74
2020-01-10 12:00:00 11.7 7 Norte 15 Norte 0 1028.1 1.2 80
2020-01-10 11:00:00 10.8 13 Norte 24 Norte 0 1028.1 1.2 85
2020-01-10 10:00:00 10.9 19 Norte 23 Norte 0 1027.4 0.7 85
2020-01-10 09:00:00 11.2 13 Norte 17 Norte 0 1026.9 0.3 89
2020-01-10 08:00:00 11.5 14 Norte 23 Noroeste 0 1026.9 0.3 89
2020-01-10 07:00:00 12.1 10 Noroeste 17 Noroeste 0 1026.7 -0.3 90
2020-01-10 06:00:00 12.7 10 Noroeste 17 Noroeste 0 1026.6 -0.8 92
2020-01-10 05:00:00 10.8 3 Noroeste 9 Noroeste 0 1026.6 -0.5 90
2020-01-10 04:00:00 11.5 0 Calma 12 Norte 0 1027 -0.4 84
2020-01-10 03:00:00 11.7 9 Noroeste 12 Noroeste 0 1027.4 -0.6 91
2020-01-10 02:00:00 10.9 2 Este 9 Este 0 1027.1 -1.2 91
2020-01-10 01:00:00 11.1 3 Este 5 Este 0 1027.4 -0.4 88
2020-01-10 00:00:00 11.3 3 Nordeste 5 Este 0 1028 0.2 90
2020-01-09 23:00:00 11.5 3 Este 4 Este 0 1028.3 0.4 89
2020-01-09 22:00:00 12 2 Este 5 Este 0 1027.8 0.1 87
2020-01-09 21:00:00 12.8 3 Norte 14 Noroeste 0 1027.8 1.1 84
2020-01-09 20:00:00 13.1 9 Noroeste 22 Noroeste 0 1027.9 1.3 83
2020-01-09 19:00:00 13.8 14 Noroeste 23 Noroeste 0 1027.7 0.7 83
2020-01-09 18:00:00 14.6 12 Noroeste 18 Noroeste 0 1026.7 -0.1 78
2020-01-09 17:00:00 15 10 Noroeste 25 Noroeste 0 1026.6 -0.5 75
2020-01-09 16:00:00 15.5 15 Noroeste 23 Noroeste 0 1027 -1.3 72
2020-01-09 15:00:00 16.3 12 Oeste 16 Oeste 0 1026.8 -2.3 63
2020-01-09 14:00:00 17.1 3 Sudoeste 12 Oeste 0 1027.1 -2.2 62
2020-01-09 13:00:00 14.4 4 Noroeste 6 Noroeste 0 1028.3 -0.2 78
2020-01-09 12:00:00 14.3 4 Este 9 Nordeste 0 1029.1 1.3 76
2020-01-09 11:00:00 12.4 5 Nordeste 6 Norte 0 1029.3 1.6 84
2020-01-09 10:00:00 12.9 2 Sudeste 6 Sudeste 0 1028.5 1.2 80
2020-01-09 09:00:00 11.4 3 Sur 9 Sudeste 0 1027.8 0.6 88
2020-01-09 08:00:00 11.6 6 Sur 12 Sur 0 1027.7 0.2 87
2020-01-09 07:00:00 11.7 6 Sur 14 Sur 0 1027.3 -0.5 88
2020-01-09 06:00:00 11.9 9 Sur 19 Sudeste 0 1027.2 -0.8 87
2020-01-09 05:00:00 12 11 Sur 18 Sur 0 1027.5 -0.6 87
2020-01-09 04:00:00 11.8 12 Sur 18 Sudeste 0 1027.8 -0.4 88
2020-01-09 03:00:00 11.7 8 Sur 13 Sudeste 0 1028 -0.3 88
2020-01-09 02:00:00 12.1 11 Sudeste 15 Sudeste 0 1028.1 -0.3 86
2020-01-09 01:00:00 12.1 10 Sudeste 14 Sudeste 0 1028.2 0 86
2020-01-09 00:00:00 12.2 10 Sudeste 14 Sudeste 0 1028.3 0.6 85
2020-01-08 23:00:00 12 13 Este 17 Este 0 1028.4 1.1 87
2020-01-08 22:00:00 11.7 6 Este 13 Este 0 1028.2 1.1 88
2020-01-08 21:00:00 12.9 6 Este 7 Este 0 1027.7 0.7 87
2020-01-08 20:00:00 13.8 2 Sudoeste 8 Sudoeste 0 1027.3 0.3 84
2020-01-08 19:00:00 14.1 3 Sudoeste 5 Sudoeste 0 1027.1 0 75
2020-01-08 18:00:00 15.9 4 Oeste 7 Oeste 0 1027 -0.3 67
2020-01-08 17:00:00 17.5 4 Sudoeste 8 Sur 0 1027 -0.7 55
2020-01-08 16:00:00 17.4 4 Sudoeste 8 Sur 0 1027.1 -1.4 54
2020-01-08 15:00:00 16.5 3 Sudeste 6 Sudeste 0 1027.3 -1.7 60
2020-01-08 14:00:00 14.2 4 Norte 8 Noroeste 0 1027.7 -1.7 73
2020-01-08 13:00:00 12.5 8 Norte 9 Norte 0 1028.5 -0.2 79
2020-01-08 12:00:00 11.4 6 Norte 9 Norte 0 1029 0.6 83
2020-01-08 11:00:00 10.4 6 Norte 11 Norte 0 1029.4 1.3 86
2020-01-08 10:00:00 9.3 8 Norte 11 Norte 0 1028.7 0.8 88
2020-01-08 09:00:00 9.2 8 Norte 10 Norte 0 1028.4 0.3 90
2020-01-08 08:00:00 8.7 5 Nordeste 12 Nordeste 0 1028.1 -0.1 90
2020-01-08 07:00:00 8.8 8 Norte 12 Norte 0 1027.9 -0.4 92
2020-01-08 06:00:00 8.7 6 Nordeste 9 Nordeste 0 1028.1 -0.5 93
2020-01-08 05:00:00 9 6 Norte 9 Norte 0 1028.2 -0.5 93
2020-01-08 04:00:00 9.8 9 Norte 11 Norte 0 1028.3 -1 93
2020-01-08 03:00:00 10.5 4 Nordeste 6 Norte 0 1028.6 -1.3 92
2020-01-08 02:00:00 10.8 4 Nordeste 6 Nordeste 0 1028.7 -1.1 90
2020-01-08 01:00:00 11.2 4 Norte 6 Nordeste 0 1029.3 -0.4 89
2020-01-08 00:00:00 11.6 5 Nordeste 9 Este 0 1029.9 0 87
2020-01-07 23:00:00 11.7 3 Este 8 Este 0 1029.8 0.4 85
2020-01-07 22:00:00 12.2 0 Calma 8 Este 0 1029.7 0.5 82
2020-01-07 21:00:00 13 3 Este 11 Este 0 1029.9 1.2 79
2020-01-07 20:00:00 14 6 Norte 10 Norte 0 1029.4 0.5 72
2020-01-07 19:00:00 14.7 6 Norte 13 Norte 0 1029.2 0.4 72
2020-01-07 18:00:00 16 12 Norte 16 Nordeste 0 1028.7 -0.2 65
2020-01-07 17:00:00 17 10 Norte 17 Norte 0 1028.9 -0.6 64
2020-01-07 16:00:00 16.6 10 Norte 14 Norte 0 1028.8 -1.1 67
2020-01-07 15:00:00 17.9 7 Nordeste 15 Nordeste 0 1028.9 -2.3 59
2020-01-07 14:00:00 17.3 9 Nordeste 21 Este 0 1029.5 -1.9 60
2020-01-07 13:00:00 16 17 Este 26 Este 0 1029.9 -0.9 69
2020-01-07 12:00:00 12.5 6 Norte 9 Norte 0 1031.2 1 83
2020-01-07 11:00:00 10.9 3 Norte 10 Norte 0 1031.4 1.4 86
2020-01-07 10:00:00 9.5 8 Norte 14 Norte 0 1030.8 0.9 90
2020-01-07 09:00:00 8.9 4 Norte 14 Norte 0 1030.2 0.6 92
2020-01-07 08:00:00 8.6 5 Nordeste 15 Nordeste 0 1030 0.5 92
2020-01-07 07:00:00 9.5 8 Nordeste 13 Este 0 1029.9 0.2 91
2020-01-07 06:00:00 10.4 8 Nordeste 15 Nordeste 0 1029.6 -0.2 87
2020-01-07 05:00:00 11.1 11 Nordeste 16 Nordeste 0 1029.5 -0.2 85
2020-01-07 04:00:00 10.8 6 Nordeste 13 Nordeste 0 1029.7 -0.5 86
2020-01-07 03:00:00 10.7 5 Nordeste 9 Este 0 1029.8 -0.4 87
2020-01-07 02:00:00 11.2 4 Este 9 Este 0 1029.7 -0.5 87
2020-01-07 01:00:00 11.3 5 Nordeste 9 Este 0 1030.2 0.5 85
2020-01-07 00:00:00 11.6 4 Nordeste 8 Nordeste 0 1030.2 0.9 85
2020-01-06 23:00:00 11.7 5 Este 9 Nordeste 0 1030.2 1.4 84
2020-01-06 22:00:00 12.2 4 Este 9 Este 0 1029.7 1.6 81
2020-01-06 21:00:00 12.6 4 Este 11 Este 0 1029.3 1.6 78
2020-01-06 20:00:00 13.2 5 Este 14 Este 0 1028.8 1.5 75
2020-01-06 19:00:00 15 6 Nordeste 15 Nordeste 0 1028.1 1 65
2020-01-06 18:00:00 16.3 8 Nordeste 15 Nordeste 0 1027.7 0 60
2020-01-06 17:00:00 17.3 7 Nordeste 14 Este 0 1027.3 -0.8 56
2020-01-06 16:00:00 16.9 8 Nordeste 17 Norte 0 1027.1 -2.1 56
2020-01-06 15:00:00 15.6 11 Norte 15 Norte 0 1027.7 -2.3 63
2020-01-06 14:00:00 15.9 7 Nordeste 16 Nordeste 0 1028.1 -1.6 66
2020-01-06 13:00:00 14.4 10 Norte 17 Norte 0 1029.2 0.4 72
2020-01-06 12:00:00 12.6 14 Norte 17 Norte 0 1030 1.5 77
2020-01-06 11:00:00 11.1 11 Norte 14 Norte 0 1029.7 1.8 85
2020-01-06 10:00:00 10 7 Norte 12 Norte 0 1028.8 1.4 85